Time;durP1;ratioP1;P1;durP2;ratioP2;P2;SDS_P1;SDS_P2;PMS_P1;PMS_P2;Temp;Humidity;BMP_temperature;BMP_pressure;BME280_temperature;BME280_humidity;BME280_pressure;Samples;Min_cycle;Max_cycle;Signal;HPM_P1;HPM_P2
2022/12/31 00:07:58;;;;;;;2.33;0.95;;;;;;;12.07;100.00;100002.69;20775253;28;20049;-73
2022/12/31 00:17:59;;;;;;;3.63;0.93;;;;;;;12.11;100.00;99999.97;20779202;28;20386;-73
2022/12/31 00:28:00;;;;;;;2.60;1.08;;;;;;;12.18;100.00;100009.38;20776302;28;20173;-72
2022/12/31 00:38:02;;;;;;;2.40;1.02;;;;;;;12.25;100.00;100026.66;20775468;28;20115;-73
2022/12/31 00:48:03;;;;;;;1.80;0.75;;;;;;;12.27;100.00;100030.13;20774894;28;20057;-73
2022/12/31 00:58:04;;;;;;;2.42;1.00;;;;;;;12.34;100.00;100036.91;20774295;28;20563;-73
2022/12/31 01:08:05;;;;;;;1.70;0.70;;;;;;;12.47;100.00;100061.91;20782749;28;20052;-73
2022/12/31 01:18:07;;;;;;;3.70;0.77;;;;;;;12.62;100.00;100079.00;20789338;28;20053;-73
2022/12/31 01:28:08;;;;;;;1.85;0.77;;;;;;;12.71;100.00;100073.47;20787851;28;20367;-73
2022/12/31 01:38:09;;;;;;;3.17;1.00;;;;;;;12.72;100.00;100080.44;20786850;28;20053;-73
2022/12/31 01:48:10;;;;;;;1.58;0.70;;;;;;;12.85;100.00;100070.44;20788095;28;20053;-73
2022/12/31 01:58:12;;;;;;;2.20;0.80;;;;;;;12.89;100.00;100090.47;20786060;28;20387;-73
2022/12/31 02:08:13;;;;;;;4.10;1.00;;;;;;;13.08;100.00;100114.41;20784144;28;20057;-73
2022/12/31 02:18:14;;;;;;;1.77;0.70;;;;;;;13.25;100.00;100116.53;20784587;28;20505;-73
2022/12/31 02:28:15;;;;;;;3.50;0.70;;;;;;;13.12;100.00;100100.25;20782950;28;20402;-73
2022/12/31 02:38:17;;;;;;;1.80;0.90;;;;;;;13.26;100.00;100111.22;20782272;28;20084;-73
2022/12/31 02:48:18;;;;;;;5.50;0.88;;;;;;;13.26;100.00;100097.22;20780913;28;20054;-72
2022/12/31 02:58:19;;;;;;;2.20;0.75;;;;;;;13.08;100.00;100117.91;20779861;28;20490;-73
2022/12/31 03:08:21;;;;;;;2.97;0.90;;;;;;;12.97;100.00;100109.47;20780528;28;20046;-72
2022/12/31 03:22:26;;;;;;;3.28;0.82;;;;;;;13.00;100.00;100117.25;20780599;28;20104;-73
2022/12/31 03:28:46;;;;;;;1.77;0.70;;;;;;;12.89;100.00;100114.09;20778230;28;20045;-73
2022/12/31 03:38:48;;;;;;;;;;;;;;;13.13;100.00;100103.72;20778298;28;20049;-73
2022/12/31 03:48:53;;;;;;;2.40;0.80;;;;;;;13.23;100.00;100121.00;20778162;28;20019;-73
2022/12/31 03:58:54;;;;;;;4.18;1.05;;;;;;;13.38;100.00;100102.09;20777797;28;20053;-73
2022/12/31 04:08:55;;;;;;;1.33;0.70;;;;;;;13.42;100.00;100114.25;20776680;28;20991;-73
2022/12/31 04:18:56;;;;;;;1.45;0.60;;;;;;;13.74;100.00;100102.66;20780201;28;20099;-73
2022/12/31 04:28:58;;;;;;;1.42;0.70;;;;;;;13.68;100.00;100125.69;20775749;28;20065;-73
2022/12/31 04:38:59;;;;;;;2.85;0.50;;;;;;;13.84;100.00;100103.19;20778525;28;20057;-73
2022/12/31 04:49:00;;;;;;;3.88;0.80;;;;;;;14.03;100.00;100117.44;20791570;28;20045;-73
2022/12/31 04:59:01;;;;;;;2.47;0.55;;;;;;;14.19;100.00;100133.59;20790063;28;20053;-73
2022/12/31 05:09:03;;;;;;;2.42;0.52;;;;;;;14.18;100.00;100146.81;20788891;28;20120;-73
2022/12/31 05:19:05;;;;;;;1.20;0.50;;;;;;;14.29;100.00;100135.00;20789080;28;20058;-73
2022/12/31 05:29:07;;;;;;;1.33;0.47;;;;;;;14.32;100.00;100149.81;20786870;28;20060;-73
2022/12/31 05:39:08;;;;;;;1.52;0.50;;;;;;;14.28;100.00;100161.41;20787520;28;20395;-73
2022/12/31 05:49:09;;;;;;;1.52;0.60;;;;;;;14.33;100.00;100175.25;20786383;28;20050;-73
2022/12/31 05:59:11;;;;;;;3.33;0.60;;;;;;;14.44;100.00;100181.00;20786161;28;20042;-73
2022/12/31 06:09:12;;;;;;;1.92;0.73;;;;;;;14.16;100.00;100185.50;20785372;28;20049;-73
2022/12/31 06:19:13;;;;;;;3.33;0.60;;;;;;;13.88;100.00;100196.09;20784459;28;20054;-73
2022/12/31 06:29:14;;;;;;;4.05;1.02;;;;;;;13.66;100.00;100217.84;20783822;28;20494;-73
2022/12/31 06:39:16;;;;;;;1.35;0.57;;;;;;;13.70;100.00;100213.31;20782790;28;20049;-73
2022/12/31 06:49:17;;;;;;;0.93;0.52;;;;;;;13.64;100.00;100214.38;20781611;28;20062;-73
2022/12/31 06:59:18;;;;;;;2.63;0.90;;;;;;;13.57;100.00;100218.97;20780953;28;20050;-73
2022/12/31 07:09:19;;;;;;;3.13;1.15;;;;;;;13.62;100.00;100231.13;20778174;28;20645;-73
2022/12/31 07:19:21;;;;;;;4.57;1.15;;;;;;;13.65;100.00;100236.28;20778711;28;20049;-73
2022/12/31 07:29:22;;;;;;;2.83;1.10;;;;;;;13.72;100.00;100253.59;20777900;28;20542;-74
2022/12/31 07:39:23;;;;;;;2.65;0.95;;;;;;;13.62;100.00;100257.44;20778744;28;20050;-73
2022/12/31 07:49:25;;;;;;;4.10;1.00;;;;;;;13.78;100.00;100274.47;20777192;28;20056;-73
2022/12/31 07:59:26;;;;;;;2.13;0.93;;;;;;;13.66;100.00;100269.59;20777451;28;20107;-74
2022/12/31 08:09:27;;;;;;;3.53;1.00;;;;;;;13.85;100.00;100291.81;20777674;28;20049;-74
2022/12/31 08:19:29;;;;;;;2.08;0.90;;;;;;;14.01;100.00;100290.41;20790534;28;20054;-73
2022/12/31 08:29:30;;;;;;;2.47;1.10;;;;;;;14.06;100.00;100296.38;20792555;28;20060;-73
2022/12/31 08:39:31;;;;;;;5.45;1.73;;;;;;;14.09;100.00;100296.28;20792063;28;20045;-73
2022/12/31 08:49:33;;;;;;;2.53;0.90;;;;;;;14.28;100.00;100308.88;20787724;28;20064;-73
2022/12/31 09:10:18;;;;;;;3.00;1.00;;;;;;;14.65;100.00;100323.47;20911668;28;20054;-79
2022/12/31 09:20:19;;;;;;;2.53;1.00;;;;;;;14.79;100.00;100334.41;20901503;28;20053;-79
2022/12/31 09:30:21;;;;;;;1.45;0.95;;;;;;;15.13;100.00;100318.28;20911195;28;20172;-79
2022/12/31 09:40:22;;;;;;;3.50;1.73;;;;;;;15.43;100.00;100324.25;20907122;28;20033;-78
2022/12/31 09:50:23;;;;;;;5.65;0.93;;;;;;;15.49;100.00;100331.91;20890023;28;20056;-79
2022/12/31 10:00:25;;;;;;;3.72;1.52;;;;;;;15.82;100.00;100324.53;20857601;28;20501;-79
2022/12/31 10:10:26;;;;;;;3.70;1.52;;;;;;;16.02;100.00;100315.84;20886906;28;20489;-79
2022/12/31 10:20:27;;;;;;;4.05;1.90;;;;;;;16.13;100.00;100307.47;20881466;28;20117;-78
2022/12/31 10:30:28;;;;;;;3.92;1.40;;;;;;;16.18;100.00;100305.50;20886177;28;20090;-80
2022/12/31 10:40:30;;;;;;;3.50;1.00;;;;;;;16.38;100.00;100302.06;20897053;28;20046;-79
2022/12/31 10:50:32;;;;;;;2.92;1.00;;;;;;;16.52;100.00;100293.56;20901665;28;20081;-78
2022/12/31 11:00:33;;;;;;;3.65;1.00;;;;;;;16.49;100.00;100284.00;20893173;28;20452;-79
2022/12/31 11:10:34;;;;;;;4.72;1.65;;;;;;;16.76;100.00;100289.03;20876336;28;20049;-79
2022/12/31 11:20:36;;;;;;;2.85;1.27;;;;;;;17.03;100.00;100282.56;20879065;28;20452;-80
2022/12/31 11:30:38;;;;;;;2.20;0.88;;;;;;;17.16;100.00;100278.44;20897108;28;20113;-80
2022/12/31 11:40:41;;;;;;;2.88;0.68;;;;;;;17.41;100.00;100272.03;20881306;28;20103;-80
2022/12/31 11:50:42;;;;;;;2.42;0.70;;;;;;;17.35;100.00;100259.97;20900906;28;20135;-82
2022/12/31 12:00:44;;;;;;;1.27;0.50;;;;;;;17.48;100.00;100257.56;20841637;28;20044;-79
2022/12/31 12:10:45;;;;;;;2.20;0.63;;;;;;;17.56;100.00;100258.09;20870940;28;20084;-78
2022/12/31 12:20:47;;;;;;;1.50;0.65;;;;;;;17.66;100.00;100263.81;20930496;28;20159;-79
2022/12/31 12:30:48;;;;;;;2.08;0.80;;;;;;;17.63;100.00;100248.94;20883887;28;20041;-79
2022/12/31 12:40:49;;;;;;;3.10;0.75;;;;;;;17.35;100.00;100243.22;20882151;28;20501;-78
2022/12/31 12:50:51;;;;;;;4.70;1.13;;;;;;;17.33;100.00;100245.91;20879043;28;20363;-79
2022/12/31 13:00:52;;;;;;;3.65;1.50;;;;;;;17.24;100.00;100243.69;20891829;28;20064;-79
2022/12/31 13:10:53;;;;;;;3.50;1.63;;;;;;;17.25;100.00;100226.03;20899573;28;20045;-79
2022/12/31 13:20:55;;;;;;;3.75;1.17;;;;;;;17.22;100.00;100210.31;20885529;28;20136;-79
2022/12/31 13:30:56;;;;;;;2.50;0.98;;;;;;;17.06;100.00;100194.28;20894478;28;20553;-79
2022/12/31 13:41:07;;;;;;;3.63;1.10;;;;;;;16.92;100.00;100208.13;20897976;28;20078;-79
2022/12/31 13:51:09;;;;;;;3.35;1.38;;;;;;;16.78;100.00;100215.81;20918300;28;20052;-79
2022/12/31 14:01:10;;;;;;;3.13;1.25;;;;;;;16.71;100.00;100222.25;20881117;28;20090;-79
2022/12/31 14:11:11;;;;;;;3.47;0.77;;;;;;;16.66;100.00;100212.75;20897678;28;20049;-79
2022/12/31 14:21:13;;;;;;;2.45;1.23;;;;;;;16.70;100.00;100218.75;20886226;28;20103;-79
2022/12/31 14:31:14;;;;;;;2.35;0.95;;;;;;;16.53;100.00;100224.78;20873779;28;20045;-78
2022/12/31 14:41:15;;;;;;;2.35;1.00;;;;;;;16.41;100.00;100212.94;20871951;28;20055;-78
2022/12/31 14:51:17;;;;;;;5.03;2.58;;;;;;;16.40;100.00;100221.81;20933195;28;20045;-79
2022/12/31 15:01:20;;;;;;;6.55;2.72;;;;;;;16.21;100.00;100223.50;20890873;23;20057;-73
2022/12/31 15:11:22;;;;;;;4.60;2.25;;;;;;;15.87;100.00;100211.69;20942226;28;20076;-73
2022/12/31 15:21:24;;;;;;;4.20;2.10;;;;;;;15.73;100.00;100213.16;20942928;28;20045;-73
2022/12/31 15:31:25;;;;;;;6.78;3.05;;;;;;;15.54;100.00;100227.06;20939336;28;20087;-73
2022/12/31 15:41:26;;;;;;;4.32;1.90;;;;;;;15.29;100.00;100228.91;20941323;28;20053;-73
2022/12/31 15:51:28;;;;;;;3.10;1.40;;;;;;;15.24;100.00;100247.56;20940547;28;20045;-74
2022/12/31 16:01:29;;;;;;;3.30;1.48;;;;;;;15.11;100.00;100262.09;20941921;28;20059;-73
2022/12/31 16:11:30;;;;;;;7.85;3.88;;;;;;;14.88;100.00;100265.56;20939759;28;20052;-74
2022/12/31 16:21:32;;;;;;;12.32;6.78;;;;;;;14.81;100.00;100274.63;20941791;28;20102;-74
2022/12/31 16:31:34;;;;;;;6.18;2.80;;;;;;;14.67;100.00;100284.78;20938012;28;20098;-75
2022/12/31 16:41:35;;;;;;;6.72;3.63;;;;;;;14.53;100.00;100301.06;20950842;28;20045;-75
2022/12/31 16:51:36;;;;;;;9.07;6.00;;;;;;;14.25;100.00;100306.34;20956369;28;20052;-75
2022/12/31 17:01:38;;;;;;;5.45;3.00;;;;;;;14.08;100.00;100309.47;20952737;28;20056;-77
2022/12/31 17:11:39;;;;;;;4.72;2.00;;;;;;;14.10;100.00;100298.00;20959209;28;20052;-76
2022/12/31 17:21:41;;;;;;;6.57;2.70;;;;;;;14.33;100.00;100297.28;20946584;28;20061;-76
2022/12/31 17:31:42;;;;;;;5.53;3.15;;;;;;;14.19;100.00;100293.38;20941111;28;20057;-76
2022/12/31 17:41:43;;;;;;;4.45;2.03;;;;;;;14.15;100.00;100295.22;20942335;28;20071;-74
2022/12/31 17:51:44;;;;;;;5.15;2.85;;;;;;;13.89;100.00;100301.28;20943434;28;20076;-76
2022/12/31 18:01:48;;;;;;;13.00;6.00;;;;;;;13.77;100.00;100305.19;20952740;28;20051;-76
2022/12/31 18:11:49;;;;;;;11.90;6.60;;;;;;;13.56;100.00;100333.00;20950079;28;20413;-75
2022/12/31 18:21:59;;;;;;;11.18;7.13;;;;;;;13.35;100.00;100328.34;20940558;28;20053;-75
2022/12/31 18:32:00;;;;;;;15.40;9.02;;;;;;;13.05;100.00;100328.25;20936849;28;20523;-76
2022/12/31 18:42:02;;;;;;;27.40;16.95;;;;;;;13.18;100.00;100333.19;20935482;28;20106;-74
2022/12/31 18:52:03;;;;;;;8.07;4.35;;;;;;;13.53;100.00;100333.09;20936736;28;20398;-74
2022/12/31 19:02:04;;;;;;;7.78;4.20;;;;;;;13.57;100.00;100345.25;20934310;28;20470;-74
2022/12/31 19:12:05;;;;;;;6.05;3.20;;;;;;;13.47;100.00;100343.78;20935161;28;20074;-74
2022/12/31 19:22:07;;;;;;;6.15;3.20;;;;;;;13.34;100.00;100343.25;20933441;28;20126;-75
2022/12/31 19:32:08;;;;;;;13.77;7.90;;;;;;;13.14;100.00;100349.94;20932034;28;20064;-74
2022/12/31 19:42:10;;;;;;;26.08;16.42;;;;;;;12.87;100.00;100347.13;20934303;28;20049;-75
2022/12/31 19:52:11;;;;;;;16.05;10.32;;;;;;;12.51;100.00;100334.03;20932518;28;20049;-74
2022/12/31 20:02:12;;;;;;;14.77;8.70;;;;;;;12.33;100.00;100332.72;20931374;28;20075;-75
2022/12/31 20:12:14;;;;;;;14.85;9.02;;;;;;;12.02;100.00;100347.44;20931803;28;20091;-74
2022/12/31 20:22:15;;;;;;;15.63;9.90;;;;;;;11.78;100.00;100372.41;20934200;28;20389;-75
2022/12/31 20:32:16;;;;;;;27.90;18.27;;;;;;;11.74;100.00;100363.78;20929438;28;20111;-74
2022/12/31 20:42:17;;;;;;;24.88;15.48;;;;;;;11.87;100.00;100363.53;20930941;28;20524;-74
2022/12/31 20:52:19;;;;;;;18.48;11.85;;;;;;;11.78;100.00;100356.69;20928285;28;20106;-75
2022/12/31 21:02:21;;;;;;;16.50;10.85;;;;;;;11.77;100.00;100365.44;20927626;28;20408;-74
2022/12/31 21:12:43;;;;;;;15.77;9.37;;;;;;;11.68;100.00;100370.88;20930963;28;20049;-75
2022/12/31 21:22:45;;;;;;;16.13;9.50;;;;;;;11.44;100.00;100388.84;20937282;28;20351;-74
2022/12/31 21:32:46;;;;;;;21.83;11.82;;;;;;;11.14;100.00;100392.91;20941807;28;20311;-75
2022/12/31 21:42:47;;;;;;;18.75;10.38;;;;;;;10.86;100.00;100400.38;20942120;28;20052;-74
2022/12/31 21:52:48;;;;;;;16.85;11.15;;;;;;;10.61;100.00;100393.81;20940629;28;20106;-74
2022/12/31 22:13:10;;;;;;;20.80;12.65;;;;;;;10.35;100.00;100423.88;20941576;28;20151;-75
2022/12/31 22:23:12;;;;;;;20.08;12.15;;;;;;;10.57;100.00;100408.72;20941362;28;20049;-76
2022/12/31 22:33:13;;;;;;;18.70;11.02;;;;;;;10.56;100.00;100432.31;20936432;28;20052;-76
2022/12/31 22:43:14;;;;;;;16.90;10.07;;;;;;;10.39;100.00;100456.09;20938343;28;20052;-76
2022/12/31 22:53:15;;;;;;;14.57;9.35;;;;;;;10.25;100.00;100453.66;20936429;28;20052;-76
2022/12/31 23:03:16;;;;;;;86.65;55.80;;;;;;;10.06;100.00;100471.34;20937455;28;20052;-76
2022/12/31 23:23:38;;;;;;;750.28;553.17;;;;;;;10.41;100.00;100467.44;20943863;28;20044;-76
2022/12/31 23:33:39;;;;;;;81.18;51.45;;;;;;;10.88;100.00;100456.25;20939454;28;20051;-76
2022/12/31 23:43:40;;;;;;;69.13;41.70;;;;;;;11.21;100.00;100464.41;20941300;28;20061;-76
2022/12/31 23:53:41;;;;;;;77.20;44.97;;;;;;;11.48;100.00;100463.94;20940366;28;20053;-76
